Time;durP1;ratioP1;P1;durP2;ratioP2;P2;SDS_P1;SDS_P2;PMS_P1;PMS_P2;Temp;Humidity;BMP_temperature;BMP_pressure;BME280_temperature;BME280_humidity;BME280_pressure;Samples;Min_cycle;Max_cycle;Signal;HPM_P1;HPM_P2
2021/11/28 00:00:55;;;;;;;55.20;35.33;;;230.90;2252.80;;;;;;4808700;29;20422;-69
2021/11/28 00:03:21;;;;;;;47.88;33.03;;;230.90;2252.80;;;;;;4808332;29;20106;-68
2021/11/28 00:06:07;;;;;;;55.35;34.33;;;230.90;2252.80;;;;;;4808617;29;20396;-69
2021/11/28 00:11:23;;;;;;;43.80;30.15;;;230.90;2252.80;;;;;;4808803;29;20389;-69
2021/11/28 00:14:03;;;;;;;39.35;29.92;;;230.90;2252.80;;;;;;4808264;29;20030;-69
2021/11/28 00:16:30;;;;;;;41.90;30.27;;;230.90;2252.80;;;;;;4808431;29;20042;-68
2021/11/28 00:18:57;;;;;;;39.30;27.52;;;230.90;2252.80;;;;;;4808390;29;20092;-69
2021/11/28 00:21:22;;;;;;;38.40;27.42;;;230.90;2252.80;;;;;;4808022;29;20113;-69
2021/11/28 00:23:48;;;;;;;42.33;28.90;;;230.90;2252.80;;;;;;4808148;29;20107;-73
2021/11/28 00:26:15;;;;;;;68.25;36.00;;;230.90;2252.80;;;;;;4808284;29;20055;-69
2021/11/28 00:28:42;;;;;;;51.10;33.15;;;230.90;2252.80;;;;;;4807900;29;20121;-68
2021/11/28 00:31:08;;;;;;;45.10;30.85;;;230.90;2252.80;;;;;;4807932;29;20538;-69
2021/11/28 00:33:34;;;;;;;41.60;30.52;;;230.90;2252.80;;;;;;4808134;29;20073;-68
2021/11/28 00:36:00;;;;;;;41.55;29.45;;;230.90;2252.80;;;;;;4807747;29;20043;-70
2021/11/28 00:38:26;;;;;;;43.13;31.63;;;230.80;2252.80;;;;;;4808077;29;20177;-68
2021/11/28 00:40:53;;;;;;;44.55;29.92;;;230.90;2252.80;;;;;;4807654;29;20400;-69
2021/11/28 00:43:19;;;;;;;43.55;29.80;;;230.80;2252.80;;;;;;4807924;29;20023;-69
2021/11/28 00:45:46;;;;;;;44.47;28.05;;;230.80;2252.80;;;;;;4807930;29;20035;-69
2021/11/28 00:48:13;;;;;;;39.83;28.30;;;230.80;2252.80;;;;;;4807440;29;20035;-69
2021/11/28 00:53:09;;;;;;;53.10;35.08;;;230.80;2252.80;;;;;;4807586;29;20033;-69
2021/11/28 00:55:35;;;;;;;47.55;33.65;;;230.80;2252.80;;;;;;4807082;29;20043;-69
2021/11/28 00:58:01;;;;;;;46.70;32.78;;;230.80;2252.80;;;;;;4807615;29;20031;-69
2021/11/28 01:00:27;;;;;;;46.70;31.75;;;230.80;2252.80;;;;;;4807645;29;20430;-69
2021/11/28 01:02:53;;;;;;;43.33;31.33;;;230.80;2252.80;;;;;;4807634;29;20027;-69
2021/11/28 01:05:20;;;;;;;54.35;36.05;;;230.80;2252.80;;;;;;4807338;29;20110;-69
2021/11/28 01:07:46;;;;;;;46.95;34.35;;;230.80;2252.80;;;;;;4807581;29;20038;-69
2021/11/28 01:10:12;;;;;;;42.17;31.92;;;230.80;2252.80;;;;;;4807141;29;20031;-69
2021/11/28 01:12:40;;;;;;;43.45;30.92;;;230.80;2252.80;;;;;;4807273;29;20066;-69
2021/11/28 01:15:07;;;;;;;56.55;35.88;;;230.80;2252.80;;;;;;4807073;29;20030;-69
2021/11/28 01:17:34;;;;;;;54.42;34.78;;;230.70;2252.80;;;;;;4807041;29;20037;-69
2021/11/28 01:20:02;;;;;;;63.60;39.58;;;230.60;2252.80;;;;;;4807359;29;20038;-69
2021/11/28 01:22:28;;;;;;;60.95;40.22;;;230.50;2252.80;;;;;;4807313;29;20088;-74
2021/11/28 01:24:53;;;;;;;57.65;38.75;;;230.40;2252.80;;;;;;4807051;29;20027;-73
2021/11/28 01:27:20;;;;;;;48.13;34.17;;;230.40;2252.80;;;;;;4806986;29;20035;-73
2021/11/28 01:29:45;;;;;;;49.38;35.45;;;230.50;2252.80;;;;;;4806926;29;20029;-69
2021/11/28 01:32:12;;;;;;;46.65;33.53;;;230.60;2252.80;;;;;;4806883;29;20027;-69
2021/11/28 01:34:39;;;;;;;45.80;33.47;;;230.60;2252.80;;;;;;4806973;29;20099;-69
2021/11/28 01:37:05;;;;;;;41.90;31.90;;;230.70;2252.80;;;;;;4806736;29;20031;-68
2021/11/28 01:39:32;;;;;;;41.25;29.83;;;230.70;2252.80;;;;;;4806702;29;20030;-68
2021/11/28 01:41:58;;;;;;;43.78;30.98;;;230.70;2252.80;;;;;;4806819;29;20039;-69
2021/11/28 01:44:24;;;;;;;44.83;32.40;;;230.70;2252.80;;;;;;4806679;29;20023;-69
2021/11/28 01:46:50;;;;;;;45.03;30.70;;;230.70;2252.80;;;;;;4806795;29;20095;-71
2021/11/28 01:49:16;;;;;;;42.25;31.17;;;230.70;2252.80;;;;;;4806469;29;20062;-69
2021/11/28 01:51:42;;;;;;;41.13;31.17;;;230.70;2252.80;;;;;;4806610;29;20387;-69
2021/11/28 01:54:13;;;;;;;47.83;32.88;;;230.70;2252.80;;;;;;4806763;29;20054;-69
2021/11/28 01:56:41;;;;;;;41.25;30.10;;;230.70;2252.80;;;;;;4806548;29;20043;-69
2021/11/28 01:59:09;;;;;;;41.10;30.65;;;230.70;2252.80;;;;;;4806746;29;20050;-69
2021/11/28 02:01:36;;;;;;;39.08;30.48;;;230.70;2252.80;;;;;;4806497;29;20460;-69
2021/11/28 02:04:02;;;;;;;40.70;29.88;;;230.70;2252.80;;;;;;4806470;29;20034;-69
2021/11/28 02:06:29;;;;;;;42.90;29.70;;;230.80;2252.80;;;;;;4806363;29;20047;-69
2021/11/28 02:08:56;;;;;;;41.55;30.38;;;230.70;2252.80;;;;;;4806325;29;20042;-69
2021/11/28 02:11:22;;;;;;;48.05;32.10;;;230.70;2252.80;;;;;;4806329;29;20023;-69
2021/11/28 02:13:48;;;;;;;45.10;31.88;;;230.70;2252.80;;;;;;4806406;29;20027;-69
2021/11/28 02:16:15;;;;;;;37.80;28.92;;;230.70;2252.80;;;;;;4806090;29;20095;-69
2021/11/28 02:18:41;;;;;;;41.22;29.98;;;230.70;2252.80;;;;;;4806376;29;20454;-69
2021/11/28 02:21:09;;;;;;;40.85;29.45;;;230.70;2252.80;;;;;;4806562;29;20109;-69
2021/11/28 02:23:36;;;;;;;42.58;30.33;;;230.80;2252.80;;;;;;4806512;29;20114;-69
2021/11/28 02:26:08;;;;;;;44.90;31.55;;;230.70;2252.80;;;;;;4806245;29;20094;-69
2021/11/28 02:28:38;;;;;;;47.75;30.80;;;230.70;2252.80;;;;;;4806482;29;20102;-69
2021/11/28 02:31:04;;;;;;;43.65;29.85;;;230.70;2252.80;;;;;;4806165;29;20038;-69
2021/11/28 02:33:30;;;;;;;44.97;30.10;;;230.70;2252.80;;;;;;4806184;29;20027;-69
2021/11/28 02:35:56;;;;;;;45.08;31.38;;;230.70;2252.80;;;;;;4806123;29;20045;-69
2021/11/28 02:38:23;;;;;;;44.25;30.13;;;230.70;2252.80;;;;;;4806173;29;20108;-69
2021/11/28 02:40:49;;;;;;;46.50;32.38;;;230.70;2252.80;;;;;;4806077;29;20099;-69
2021/11/28 02:43:15;;;;;;;48.85;32.40;;;230.70;2252.80;;;;;;4806068;29;20031;-69
2021/11/28 02:45:41;;;;;;;45.25;29.98;;;230.70;2252.80;;;;;;4805980;29;20092;-69
2021/11/28 02:48:14;;;;;;;43.45;30.50;;;230.70;2252.80;;;;;;4806129;29;20035;-68
2021/11/28 02:50:40;;;;;;;47.30;31.10;;;230.70;2252.80;;;;;;4806095;29;20078;-70
2021/11/28 02:53:09;;;;;;;44.17;31.58;;;230.80;2252.80;;;;;;4806243;29;20295;-69
2021/11/28 02:55:38;;;;;;;39.50;29.95;;;230.70;2252.80;;;;;;4806213;29;20039;-69
2021/11/28 02:58:07;;;;;;;43.70;30.38;;;230.70;2252.80;;;;;;4805945;29;20469;-69
2021/11/28 03:00:37;;;;;;;41.17;29.95;;;230.70;2252.80;;;;;;4806191;29;20378;-69
2021/11/28 03:03:03;;;;;;;43.50;29.77;;;230.60;2252.80;;;;;;4806217;29;20109;-69
2021/11/28 03:05:29;;;;;;;41.95;31.73;;;230.60;2252.80;;;;;;4805901;29;20034;-69
2021/11/28 03:07:56;;;;;;;46.72;32.03;;;230.60;2252.80;;;;;;4806644;29;20117;-69
2021/11/28 03:10:32;;;;;;;48.05;33.05;;;230.60;2252.80;;;;;;4805889;29;20086;-69
2021/11/28 03:12:59;;;;;;;44.97;31.02;;;230.70;2252.80;;;;;;4805897;29;20078;-72
2021/11/28 03:15:25;;;;;;;53.03;38.28;;;230.60;2252.80;;;;;;4805636;29;20077;-68
2021/11/28 03:17:51;;;;;;;46.63;32.45;;;230.70;2252.80;;;;;;4805812;29;20038;-68
2021/11/28 03:20:18;;;;;;;43.53;31.35;;;230.60;2252.80;;;;;;4807950;29;20485;-67
2021/11/28 03:22:49;;;;;;;41.10;29.40;;;230.70;2252.80;;;;;;4809383;29;20105;-68
2021/11/28 03:25:19;;;;;;;47.22;30.95;;;230.70;2252.80;;;;;;4809100;29;20027;-68
2021/11/28 03:27:46;;;;;;;48.25;31.60;;;230.70;2252.80;;;;;;4808979;29;20167;-68
2021/11/28 03:30:14;;;;;;;50.65;34.42;;;230.70;2252.80;;;;;;4808818;29;20124;-67
2021/11/28 03:32:40;;;;;;;49.03;33.78;;;230.60;2252.80;;;;;;4808894;29;20165;-68
2021/11/28 03:35:07;;;;;;;46.05;33.38;;;230.60;2252.80;;;;;;4808892;29;20121;-68
2021/11/28 03:37:33;;;;;;;44.80;34.15;;;230.60;2252.80;;;;;;4808781;29;20539;-68
2021/11/28 03:40:00;;;;;;;51.72;37.92;;;230.60;2252.80;;;;;;4808834;29;20066;-67
2021/11/28 03:42:26;;;;;;;49.65;37.65;;;230.60;2252.80;;;;;;4808858;29;20026;-67
2021/11/28 03:44:52;;;;;;;49.53;36.22;;;230.60;2252.80;;;;;;4808761;29;20031;-68
2021/11/28 03:47:18;;;;;;;44.53;33.10;;;230.70;2252.80;;;;;;4808775;29;20484;-68
2021/11/28 03:49:44;;;;;;;45.70;32.78;;;230.60;2252.80;;;;;;4808425;29;20492;-68
2021/11/28 03:52:10;;;;;;;55.78;35.42;;;230.60;2252.80;;;;;;4809176;29;20031;-68
2021/11/28 03:54:37;;;;;;;47.05;33.03;;;230.60;2252.80;;;;;;4808506;29;20469;-68
2021/11/28 03:57:03;;;;;;;60.45;37.85;;;230.50;2252.80;;;;;;4808837;29;20031;-67
2021/11/28 03:59:29;;;;;;;60.28;38.28;;;230.50;2252.80;;;;;;4808487;29;20034;-68
2021/11/28 04:01:56;;;;;;;48.42;34.22;;;230.40;2252.80;;;;;;4808464;29;20035;-68
2021/11/28 04:04:22;;;;;;;53.72;35.10;;;230.50;2252.80;;;;;;4808713;29;20118;-68
2021/11/28 04:06:48;;;;;;;48.08;32.60;;;230.60;2252.80;;;;;;4808434;29;20038;-67
2021/11/28 04:09:14;;;;;;;45.92;31.88;;;230.60;2252.80;;;;;;4808610;29;20373;-68
2021/11/28 04:11:40;;;;;;;45.30;30.98;;;230.60;2252.80;;;;;;4808487;29;20469;-68
2021/11/28 04:14:06;;;;;;;41.50;30.25;;;230.50;2252.80;;;;;;4808330;29;20414;-68
2021/11/28 04:16:32;;;;;;;42.35;29.45;;;230.50;2252.80;;;;;;4808261;29;20500;-68
2021/11/28 04:18:59;;;;;;;47.10;29.27;;;230.50;2252.80;;;;;;4807990;29;20088;-68
2021/11/28 04:21:26;;;;;;;40.90;28.42;;;230.60;2252.80;;;;;;4807856;29;20035;-68
2021/11/28 04:23:53;;;;;;;36.17;26.48;;;230.60;2252.80;;;;;;4807907;29;20398;-67
2021/11/28 04:26:20;;;;;;;35.20;25.85;;;230.60;2252.80;;;;;;4808465;29;20083;-68
2021/11/28 04:28:46;;;;;;;36.15;24.77;;;230.60;2252.80;;;;;;4808085;29;20041;-69
2021/11/28 04:31:12;;;;;;;34.83;26.02;;;230.60;2252.80;;;;;;4806796;29;20400;-68
2021/11/28 04:33:38;;;;;;;40.05;25.85;;;230.50;2252.80;;;;;;4807833;29;20031;-72
2021/11/28 04:36:04;;;;;;;36.65;25.13;;;230.50;2252.80;;;;;;4807675;29;20039;-71
2021/11/28 04:38:31;;;;;;;36.33;25.95;;;230.40;2252.80;;;;;;4807781;29;20037;-68
2021/11/28 04:40:57;;;;;;;35.90;24.52;;;230.40;2252.80;;;;;;4807645;29;20038;-72
2021/11/28 04:43:24;;;;;;;35.20;24.05;;;230.40;2252.80;;;;;;4807891;29;20035;-69
2021/11/28 04:45:50;;;;;;;32.30;23.38;;;230.40;2252.80;;;;;;4807591;29;20107;-68
2021/11/28 04:48:16;;;;;;;35.05;25.00;;;230.40;2252.80;;;;;;4807456;29;20027;-68
2021/11/28 04:50:42;;;;;;;34.55;24.25;;;230.40;2252.80;;;;;;4807491;29;20397;-67
2021/11/28 04:53:08;;;;;;;37.90;27.13;;;230.40;2252.80;;;;;;4806534;29;20027;-68
2021/11/28 04:55:34;;;;;;;38.47;27.30;;;230.40;2252.80;;;;;;4807260;29;20450;-68
2021/11/28 04:58:01;;;;;;;35.70;24.52;;;230.40;2252.80;;;;;;4807248;29;20122;-73
2021/11/28 05:00:27;;;;;;;33.13;23.45;;;230.40;2252.80;;;;;;4807262;29;20481;-72
2021/11/28 05:02:55;;;;;;;32.00;23.45;;;205.70;2252.80;;;;;;4807555;29;20172;-68
2021/11/28 05:05:22;;;;;;;29.42;22.17;;;205.70;2252.80;;;;;;4807276;29;20035;-68
2021/11/28 05:07:48;;;;;;;30.50;23.75;;;205.70;2252.80;;;;;;4807261;29;20034;-68
2021/11/28 05:10:15;;;;;;;35.58;24.42;;;205.70;2252.80;;;;;;4807207;29;20031;-68
2021/11/28 05:12:41;;;;;;;38.03;24.08;;;205.70;2252.80;;;;;;4807205;29;20035;-68
2021/11/28 05:15:08;;;;;;;31.42;23.08;;;205.60;2252.80;;;;;;4807370;29;20039;-68
2021/11/28 05:17:34;;;;;;;32.47;22.67;;;205.60;2252.80;;;;;;4807183;29;20097;-67
2021/11/28 05:20:01;;;;;;;33.35;22.55;;;205.60;2252.80;;;;;;4807044;29;20039;-68
2021/11/28 05:22:28;;;;;;;30.90;22.02;;;205.50;2252.80;;;;;;4806885;29;20035;-68
2021/11/28 05:24:54;;;;;;;32.45;21.73;;;205.50;2252.80;;;;;;4807157;29;20109;-67
2021/11/28 05:27:21;;;;;;;38.75;25.33;;;205.50;2252.80;;;;;;4806852;29;20540;-68
2021/11/28 05:29:47;;;;;;;60.10;32.05;;;205.50;2252.80;;;;;;4807037;29;20468;-68
2021/11/28 05:32:13;;;;;;;36.38;24.42;;;205.50;2252.80;;;;;;4806746;29;20054;-68
2021/11/28 05:34:40;;;;;;;30.05;21.90;;;205.40;2252.80;;;;;;4806678;29;20080;-69
2021/11/28 05:37:06;;;;;;;35.13;24.15;;;205.40;2252.80;;;;;;4806703;29;20122;-72
2021/11/28 05:39:32;;;;;;;126.00;74.43;;;205.40;2252.80;;;;;;4806910;29;20030;-68
2021/11/28 05:41:58;;;;;;;73.55;50.58;;;205.40;2252.80;;;;;;4806175;29;20390;-68
2021/11/28 05:44:24;;;;;;;42.67;30.15;;;205.40;2252.80;;;;;;4806821;29;20034;-68
2021/11/28 05:46:51;;;;;;;31.42;21.95;;;205.40;2252.80;;;;;;4806508;29;20477;-68
2021/11/28 05:49:17;;;;;;;27.67;19.48;;;205.40;2252.80;;;;;;4806331;29;20115;-68
2021/11/28 05:51:43;;;;;;;33.40;21.05;;;205.40;2252.80;;;;;;4806368;29;20031;-68
2021/11/28 05:54:09;;;;;;;33.80;22.27;;;205.40;2252.80;;;;;;4807362;29;20465;-72
2021/11/28 05:56:35;;;;;;;51.40;31.98;;;205.40;2252.80;;;;;;4806397;29;20175;-72
2021/11/28 05:59:01;;;;;;;43.72;28.50;;;205.50;2252.80;;;;;;4806197;29;20030;-68
2021/11/28 06:01:27;;;;;;;34.67;23.35;;;205.50;2252.80;;;;;;4806483;29;20042;-67
2021/11/28 06:03:53;;;;;;;31.73;22.88;;;205.50;2252.80;;;;;;4806452;29;20119;-69
2021/11/28 06:06:19;;;;;;;37.33;25.23;;;205.50;2252.80;;;;;;4806693;29;20110;-72
2021/11/28 06:08:45;;;;;;;50.58;30.75;;;205.50;2252.80;;;;;;4806147;29;20027;-67
2021/11/28 06:11:11;;;;;;;55.83;31.73;;;205.50;2252.80;;;;;;4806156;29;20095;-68
2021/11/28 06:13:37;;;;;;;51.80;30.80;;;205.50;2252.80;;;;;;4806239;29;20031;-73
2021/11/28 06:16:05;;;;;;;54.92;32.42;;;205.60;2252.80;;;;;;4806341;29;20128;-68
2021/11/28 06:18:31;;;;;;;58.72;34.22;;;205.50;2252.80;;;;;;4806482;29;20049;-68
2021/11/28 06:20:57;;;;;;;60.17;36.50;;;205.60;2252.80;;;;;;4806427;29;20031;-68
2021/11/28 06:23:23;;;;;;;50.13;31.35;;;205.60;2252.80;;;;;;4806472;29;20515;-69
2021/11/28 06:25:49;;;;;;;41.17;26.65;;;205.70;2252.80;;;;;;4806319;29;20045;-68
2021/11/28 06:28:15;;;;;;;39.92;26.58;;;205.70;2252.80;;;;;;4806355;29;20038;-73
2021/11/28 06:30:41;;;;;;;37.40;25.98;;;205.70;2252.80;;;;;;4806025;29;20039;-68
2021/11/28 06:33:07;;;;;;;48.78;32.22;;;205.70;2252.80;;;;;;4806175;29;20490;-72
2021/11/28 06:35:33;;;;;;;51.17;30.05;;;205.70;2252.80;;;;;;4806105;29;20034;-68
2021/11/28 06:37:59;;;;;;;45.60;27.33;;;230.40;2252.80;;;;;;4806004;29;20041;-72
2021/11/28 06:40:25;;;;;;;44.25;27.65;;;230.40;2252.80;;;;;;4806055;29;20027;-69
2021/11/28 06:42:51;;;;;;;49.40;32.55;;;230.50;2252.80;;;;;;4806000;29;20091;-70
2021/11/28 06:45:17;;;;;;;54.75;36.65;;;230.50;2252.80;;;;;;4805935;29;20477;-72
2021/11/28 06:47:43;;;;;;;56.63;36.08;;;230.50;2252.80;;;;;;4805978;29;20073;-73
2021/11/28 06:50:10;;;;;;;52.08;35.67;;;230.50;2252.80;;;;;;4805718;29;20581;-72
2021/11/28 06:52:36;;;;;;;45.50;29.63;;;230.60;2252.80;;;;;;4805836;29;20115;-72
2021/11/28 06:55:03;;;;;;;47.67;33.53;;;230.60;2252.80;;;;;;4808370;29;20039;-68
2021/11/28 06:57:29;;;;;;;66.43;42.15;;;230.60;2252.80;;;;;;4809319;29;20023;-72
2021/11/28 06:59:54;;;;;;;71.07;41.92;;;230.60;2252.80;;;;;;4809267;29;20030;-68
2021/11/28 07:02:20;;;;;;;47.72;31.30;;;230.70;2252.80;;;;;;4809332;29;20118;-72
2021/11/28 07:04:46;;;;;;;63.05;37.25;;;230.70;2252.80;;;;;;4809466;29;20134;-67
2021/11/28 07:07:12;;;;;;;41.22;26.60;;;230.60;2252.80;;;;;;4809392;29;20040;-69
2021/11/28 07:09:38;;;;;;;42.92;26.67;;;230.70;2252.80;;;;;;4809343;29;20042;-68
2021/11/28 07:12:05;;;;;;;43.95;28.67;;;230.70;2252.80;;;;;;4809374;29;20035;-68
2021/11/28 07:14:31;;;;;;;38.17;25.30;;;230.80;2252.80;;;;;;4808848;29;20536;-69
2021/11/28 07:16:57;;;;;;;37.42;26.38;;;230.80;2252.80;;;;;;4809055;29;20117;-68
2021/11/28 07:19:23;;;;;;;49.17;32.20;;;230.80;2252.80;;;;;;4809228;29;20033;-68
2021/11/28 07:21:50;;;;;;;40.08;27.48;;;230.90;2252.80;;;;;;4809015;29;20019;-72
2021/11/28 07:24:16;;;;;;;39.80;26.40;;;230.90;2252.80;;;;;;4809199;29;20061;-68
2021/11/28 07:26:42;;;;;;;47.97;28.95;;;231.00;2252.80;;;;;;4809239;29;20381;-67
2021/11/28 07:29:08;;;;;;;56.13;35.47;;;231.00;2252.80;;;;;;4809069;29;20023;-67
2021/11/28 07:31:34;;;;;;;67.50;37.75;;;231.00;2252.80;;;;;;4808865;29;20042;-67
2021/11/28 07:34:00;;;;;;;55.53;32.95;;;231.10;2252.80;;;;;;4808659;29;20388;-75
2021/11/28 07:36:25;;;;;;;52.67;34.85;;;231.20;2252.80;;;;;;4808509;29;20038;-67
2021/11/28 07:38:51;;;;;;;61.20;38.90;;;231.30;2252.80;;;;;;4808990;29;20110;-73
2021/11/28 07:41:17;;;;;;;65.28;40.63;;;231.30;2252.80;;;;;;4808978;29;20476;-69
2021/11/28 07:43:43;;;;;;;49.78;30.98;;;256.00;2252.80;;;;;;4808497;29;20087;-67
2021/11/28 07:46:09;;;;;;;40.42;26.83;;;256.00;2252.80;;;;;;4808515;29;20030;-67
2021/11/28 07:48:35;;;;;;;61.08;36.85;;;256.10;2252.80;;;;;;4808405;29;20049;-66
2021/11/28 07:51:01;;;;;;;72.53;47.45;;;256.10;2252.80;;;;;;4808476;29;20127;-67
2021/11/28 07:53:27;;;;;;;58.50;39.75;;;256.10;2252.80;;;;;;4808554;29;20481;-67
2021/11/28 07:55:53;;;;;;;55.65;38.78;;;256.20;2252.80;;;;;;4808428;29;20536;-67
2021/11/28 07:58:19;;;;;;;46.65;30.98;;;256.30;2252.80;;;;;;4792444;29;20385;-66
2021/11/28 08:00:45;;;;;;;35.13;24.95;;;256.30;2252.80;;;;;;4808750;29;20088;-66
2021/11/28 08:03:11;;;;;;;45.75;30.65;;;256.40;2252.80;;;;;;4808397;29;20492;-66
2021/11/28 08:05:37;;;;;;;42.58;28.10;;;256.50;2252.80;;;;;;4808339;29;20062;-67
2021/11/28 08:08:06;;;;;;;38.55;27.08;;;256.60;2252.80;;;;;;4808270;29;20062;-67
2021/11/28 08:10:32;;;;;;;34.28;24.13;;;256.60;2252.80;;;;;;4808264;29;20054;-73
2021/11/28 08:12:58;;;;;;;37.28;24.80;;;256.70;2252.80;;;;;;4808058;29;20038;-68
2021/11/28 08:15:24;;;;;;;33.45;23.70;;;256.90;2252.80;;;;;;4808308;29;20049;-73
2021/11/28 08:17:50;;;;;;;34.17;23.38;;;256.90;2252.80;;;;;;4807958;29;20027;-68
2021/11/28 08:20:18;;;;;;;37.03;26.45;;;281.60;2278.40;;;;;;4808194;29;20038;-73
2021/11/28 08:22:45;;;;;;;37.45;25.77;;;281.70;2278.40;;;;;;4824674;29;20484;-67
2021/11/28 08:25:14;;;;;;;44.92;31.45;;;281.70;2278.40;;;;;;4825452;29;20061;-71
2021/11/28 08:27:40;;;;;;;54.10;37.40;;;281.80;2278.40;;;;;;4825268;29;20110;-66
2021/11/28 08:30:13;;;;;;;50.22;34.33;;;281.90;2278.40;;;;;;4824682;29;20030;-67
2021/11/28 08:32:40;;;;;;;44.83;31.95;;;282.00;2278.40;;;;;;4822403;29;20381;-68
2021/11/28 08:35:08;;;;;;;49.17;32.47;;;282.10;2278.40;;;;;;4824840;29;20082;-74
2021/11/28 08:37:34;;;;;;;41.33;30.27;;;282.20;2278.40;;;;;;4824368;29;20038;-68
2021/11/28 08:40:02;;;;;;;43.38;30.25;;;282.30;2278.40;;;;;;4824472;29;20484;-69
2021/11/28 08:42:32;;;;;;;48.55;33.85;;;282.30;2278.40;;;;;;4824435;29;20544;-67
2021/11/28 08:44:59;;;;;;;42.00;28.33;;;282.50;2278.40;;;;;;4822150;29;20476;-68
2021/11/28 08:47:25;;;;;;;33.75;25.60;;;282.50;2278.40;;;;;;4824466;29;20041;-68
2021/11/28 08:49:51;;;;;;;39.30;27.85;;;307.20;2304.00;;;;;;4824218;29;20050;-67
2021/11/28 08:52:17;;;;;;;33.80;24.08;;;307.40;2304.00;;;;;;4824316;29;20022;-68
2021/11/28 08:54:42;;;;;;;37.60;27.02;;;307.50;2304.00;;;;;;4824123;29;20102;-69
2021/11/28 08:57:08;;;;;;;40.90;28.52;;;307.60;2304.00;;;;;;4824434;29;20042;-69
2021/11/28 08:59:34;;;;;;;38.92;28.25;;;307.70;2304.00;;;;;;4824254;29;20034;-68
2021/11/28 09:02:00;;;;;;;38.50;27.05;;;307.90;2304.00;;;;;;4824156;29;20034;-69
2021/11/28 09:04:26;;;;;;;41.80;30.45;;;307.90;2304.00;;;;;;4824472;29;20472;-68
2021/11/28 09:06:52;;;;;;;40.28;28.63;;;308.00;2304.00;;;;;;4825040;29;20035;-74
2021/11/28 09:09:18;;;;;;;38.65;27.38;;;308.10;2304.00;;;;;;4825350;29;20053;-75
2021/11/28 09:11:44;;;;;;;39.95;27.75;;;332.80;2329.60;;;;;;4824829;29;20433;-75
2021/11/28 09:14:11;;;;;;;40.45;28.45;;;333.00;2329.60;;;;;;4824856;29;20026;-67
2021/11/28 09:16:37;;;;;;;35.15;24.70;;;333.00;2329.60;;;;;;4824989;29;20396;-67
2021/11/28 09:19:12;;;;;;;40.38;26.27;;;333.00;2329.60;;;;;;4825307;29;20030;-68
2021/11/28 09:21:39;;;;;;;42.80;26.90;;;333.10;2329.60;;;;;;4825402;29;20034;-66
2021/11/28 09:24:35;;;;;;;37.47;26.45;;;333.00;2329.60;;;;;;4825361;29;20060;-66
2021/11/28 09:27:06;;;;;;;38.65;26.33;;;333.00;2329.60;;;;;;4825119;29;20034;-67
2021/11/28 09:29:34;;;;;;;39.42;27.45;;;333.10;2329.60;;;;;;4823393;29;20454;-66
2021/11/28 09:32:00;;;;;;;36.17;26.77;;;333.40;2329.60;;;;;;4825204;29;20588;-66
2021/11/28 09:34:26;;;;;;;38.65;27.20;;;333.50;2329.60;;;;;;4825074;29;20110;-67
2021/11/28 09:36:53;;;;;;;40.80;27.58;;;333.40;2329.60;;;;;;4824835;29;20038;-65
2021/11/28 09:39:19;;;;;;;38.00;28.42;;;333.40;2329.60;;;;;;4825655;29;20026;-66
2021/11/28 09:41:47;;;;;;;44.08;29.75;;;333.50;2329.60;;;;;;4825079;29;20054;-65
2021/11/28 09:44:16;;;;;;;38.20;28.00;;;333.70;2329.60;;;;;;4825008;29;20030;-64
2021/11/28 09:46:44;;;;;;;36.70;27.65;;;358.50;2329.60;;;;;;4808464;29;20369;-66
2021/11/28 09:49:12;;;;;;;37.50;27.98;;;358.70;2329.60;;;;;;4824867;29;20046;-80
2021/11/28 09:51:38;;;;;;;42.95;29.55;;;358.80;2329.60;;;;;;4824343;29;20076;-65
2021/11/28 09:54:06;;;;;;;38.90;28.30;;;358.80;2329.60;;;;;;4824875;29;20381;-64
2021/11/28 09:56:36;;;;;;;40.10;28.02;;;359.20;2329.60;;;;;;4824451;29;20073;-64
2021/11/28 09:59:03;;;;;;;40.63;28.67;;;384.50;2252.80;;;;;;4824163;29;20109;-72
2021/11/28 10:01:31;;;;;;;43.50;29.05;;;;;;;;;;4824456;29;20401;-63
2021/11/28 10:03:57;;;;;;;36.13;26.90;;;409.70;2176.00;;;;;;4824680;29;20110;-64
2021/11/28 10:06:23;;;;;;;32.25;24.00;;;410.20;2176.00;;;;;;4824599;29;20113;-64
2021/11/28 10:08:49;;;;;;;29.23;22.25;;;435.40;2048.00;;;;;;4824655;29;20062;-64
2021/11/28 10:11:17;;;;;;;28.00;21.75;;;436.10;1945.60;;;;;;4824521;29;20492;-64
2021/11/28 10:13:45;;;;;;;30.00;20.67;;;461.20;1894.40;;;;;;4824148;29;20037;-66
2021/11/28 10:16:11;;;;;;;25.77;19.25;;;461.30;1843.20;;;;;;4823782;29;20128;-66
2021/11/28 10:18:37;;;;;;;30.05;18.92;;;461.20;1843.20;;;;;;4824501;29;20073;-63
2021/11/28 10:21:04;;;;;;;26.92;17.17;;;;;;;;;;4824481;29;20650;-65
2021/11/28 10:23:30;;;;;;;26.90;17.27;;;436.00;1868.80;;;;;;4824528;29;20092;-74
2021/11/28 10:26:17;;;;;;;22.40;16.55;;;435.40;1945.60;;;;;;4824342;29;20447;-64
2021/11/28 10:29:05;;;;;;;21.98;15.32;;;435.30;1996.80;;;;;;4825921;29;20126;-64
2021/11/28 10:31:58;;;;;;;23.27;15.48;;;435.30;1971.20;;;;;;4827895;29;20087;-64
2021/11/28 10:34:30;;;;;;;22.60;16.08;;;435.60;1945.60;;;;;;4827997;29;20054;-63
2021/11/28 10:37:05;;;;;;;24.38;15.90;;;435.40;1945.60;;;;;;4827862;29;20510;-63
2021/11/28 10:39:58;;;;;;;24.27;17.48;;;436.10;1894.40;;;;;;4827915;29;20117;-65
2021/11/28 10:42:32;;;;;;;22.73;16.47;;;435.90;1894.40;;;;;;4826809;29;20109;-65
2021/11/28 10:45:16;;;;;;;21.00;15.27;;;435.70;1920.00;;;;;;4825624;29;20034;-66
2021/11/28 10:47:46;;;;;;;20.80;15.00;;;435.60;1945.60;;;;;;4827544;29;20035;-66
2021/11/28 10:50:20;;;;;;;21.02;15.05;;;410.50;1996.80;;;;;;4827273;29;20494;-65
2021/11/28 10:52:53;;;;;;;21.63;15.57;;;410.10;2048.00;;;;;;4828078;29;20054;-65
2021/11/28 10:55:28;;;;;;;20.33;15.05;;;409.90;2099.20;;;;;;4827529;29;20026;-64
2021/11/28 10:58:27;;;;;;;21.35;16.23;;;409.80;2150.40;;;;;;4841280;29;20061;-64
2021/11/28 11:00:53;;;;;;;22.98;16.10;;;410.40;2073.60;;;;;;4828720;29;20040;-64
2021/11/28 11:03:39;;;;;;;20.27;14.80;;;410.00;2099.20;;;;;;4845849;29;20034;-65
2021/11/28 11:06:25;;;;;;;27.95;19.38;;;409.70;2124.80;;;;;;4845834;29;20022;-65
2021/11/28 11:09:12;;;;;;;26.02;15.68;;;384.80;2150.40;;;;;;4845797;29;20542;-65
2021/11/28 11:11:38;;;;;;;23.92;16.38;;;384.60;2176.00;;;;;;4845500;29;20038;-63
2021/11/28 11:14:05;;;;;;;19.20;13.23;;;384.40;2201.60;;;;;;4845608;29;20033;-64
2021/11/28 11:16:34;;;;;;;19.90;13.93;;;384.10;2227.20;;;;;;4845767;29;20061;-64
2021/11/28 11:19:31;;;;;;;20.75;13.45;;;359.30;2252.80;;;;;;4845539;29;20436;-64
2021/11/28 11:22:22;;;;;;;23.27;15.90;;;359.20;2278.40;;;;;;4845488;29;20502;-64
2021/11/28 11:24:59;;;;;;;21.13;15.75;;;359.10;2304.00;;;;;;4845488;29;20491;-64
2021/11/28 11:27:27;;;;;;;25.80;17.88;;;359.10;2304.00;;;;;;4845026;29;20033;-63
2021/11/28 11:30:00;;;;;;;31.80;21.73;;;359.00;2329.60;;;;;;4845331;29;20029;-64
2021/11/28 11:32:52;;;;;;;32.00;24.25;;;358.90;2329.60;;;;;;4845580;29;20034;-64
2021/11/28 11:35:26;;;;;;;31.10;22.27;;;359.00;2329.60;;;;;;4830348;29;20031;-65
2021/11/28 11:37:57;;;;;;;38.70;28.02;;;358.90;2329.60;;;;;;4826653;29;20031;-65
2021/11/28 11:40:25;;;;;;;39.13;27.95;;;358.90;2329.60;;;;;;4825821;29;20472;-64
2021/11/28 11:42:52;;;;;;;53.60;42.13;;;358.90;2329.60;;;;;;4813433;29;20039;-64
2021/11/28 11:45:21;;;;;;;40.13;30.10;;;358.90;2329.60;;;;;;4808441;29;20114;-64
2021/11/28 11:47:48;;;;;;;40.55;32.65;;;358.90;2329.60;;;;;;4808226;29;20029;-65
2021/11/28 11:50:17;;;;;;;41.63;32.90;;;359.00;2329.60;;;;;;4808464;29;20058;-65
2021/11/28 11:52:43;;;;;;;49.63;35.15;;;359.00;2329.60;;;;;;4808415;29;20031;-73
2021/11/28 11:55:27;;;;;;;107.63;71.90;;;359.10;2329.60;;;;;;4808360;29;20099;-65
2021/11/28 11:58:22;;;;;;;82.90;53.17;;;359.10;2329.60;;;;;;4808057;29;20035;-66
2021/11/28 12:01:05;;;;;;;64.53;41.83;;;359.10;2329.60;;;;;;4808176;29;20397;-70
2021/11/28 12:03:54;;;;;;;119.88;69.30;;;359.10;2329.60;;;;;;4808345;29;20454;-64
2021/11/28 12:06:49;;;;;;;290.15;163.18;;;359.20;2329.60;;;;;;4808280;29;20035;-65
2021/11/28 12:09:36;;;;;;;106.70;65.15;;;359.20;2329.60;;;;;;4807989;29;20038;-66